Linwood, Texas
Current Conditions -  °F | °C
As of 2:55 AM on Friday 21 Nov 2014 (Local Time) from KJSO Reporting Station
Moderate Rain Moderate Rain  
Wind Chill: 58°   Ceiling: 300
Heat Index: 58°   Visibility: 3mi
Dew Point: 57°   Wind: 10mph
Humidity: 97%   Direction: 150°SSE
Pressure: 30.13"   Gusts: NA
Location:  31.6384°N, 95.0772°W
Report Text: KJSO 210855Z AUTO 15009KT 3SM RA OVC003 14/13 A3013 RMK AO2 P0001 T01450140
Loading
Personal Weather Stations






























Interactive Weather Map New forecast layout! Learn more

10-Day Weather Forecast

Advertisements
Track Severe Weather on mobile